Time;durP1;ratioP1;P1;durP2;ratioP2;P2;SDS_P1;SDS_P2;PMS_P1;PMS_P2;Temp;Humidity;BMP_temperature;BMP_pressure;BME280_temperature;BME280_humidity;BME280_pressure;Samples;Min_cycle;Max_cycle;Signal;HPM_P1;HPM_P2
2023/03/14 00:00:49;;;;;;;24.17;8.00;;;12.40;99.90;;;;;;5047620;28;21186;-61
2023/03/14 00:03:16;;;;;;;29.33;9.17;;;11.60;99.90;;;;;;5053808;28;20478;-61
2023/03/14 00:05:43;;;;;;;27.60;8.83;;;11.60;99.90;;;;;;5056109;28;20685;-61
2023/03/14 00:08:10;;;;;;;45.47;12.57;;;;;;;;;;5034028;28;20490;-61
2023/03/14 00:10:37;;;;;;;22.63;7.50;;;11.60;99.90;;;;;;5056353;28;20692;-61
2023/03/14 00:13:05;;;;;;;43.87;13.43;;;11.50;99.90;;;;;;5047318;28;20556;-61
2023/03/14 00:15:33;;;;;;;29.73;9.47;;;11.60;99.90;;;;;;5051075;28;20540;-61
2023/03/14 00:18:00;;;;;;;47.83;9.63;;;11.60;99.90;;;;;;5061024;28;20535;-61
2023/03/14 00:20:26;;;;;;;29.17;7.83;;;11.60;99.90;;;;;;5058603;28;20490;-62
2023/03/14 00:22:59;;;;;;;20.23;6.43;;;11.60;99.90;;;;;;5048900;28;20839;-61
2023/03/14 00:25:26;;;;;;;36.50;9.37;;;11.60;99.90;;;;;;5055593;28;20702;-61
2023/03/14 00:27:53;;;;;;;29.10;8.10;;;11.60;99.90;;;;;;5060811;28;20481;-61
2023/03/14 00:30:21;;;;;;;30.53;8.50;;;11.70;99.90;;;;;;5060863;28;20747;-61
2023/03/14 00:32:48;;;;;;;18.07;5.80;;;11.60;99.90;;;;;;5064052;28;20478;-61
2023/03/14 00:35:15;;;;;;;46.77;13.50;;;;;;;;;;5045687;28;20531;-61
2023/03/14 00:37:41;;;;;;;21.23;6.80;;;11.70;99.90;;;;;;5066226;28;20505;-61
2023/03/14 00:40:09;;;;;;;37.10;8.23;;;11.60;99.90;;;;;;5068112;28;20986;-61
2023/03/14 00:42:36;;;;;;;22.60;7.30;;;11.60;99.90;;;;;;5062764;28;20898;-61
2023/03/14 00:45:04;;;;;;;41.93;11.20;;;;;;;;;;5048069;28;20490;-62
2023/03/14 00:47:32;;;;;;;29.13;8.00;;;11.60;99.90;;;;;;5071216;28;20481;-61
2023/03/14 00:49:59;;;;;;;47.37;11.10;;;;;;;;;;5069262;28;20678;-61
2023/03/14 00:52:26;;;;;;;33.93;8.10;;;;;;;;;;5065245;28;20477;-61
2023/03/14 00:54:53;;;;;;;39.30;7.87;;;;;;;;;;5066141;28;20874;-60
2023/03/14 00:57:20;;;;;;;32.87;7.90;;;11.70;99.90;;;;;;5056866;28;20483;-61
2023/03/14 00:59:47;;;;;;;19.63;5.77;;;;;;;;;;5041882;28;20750;-61
2023/03/14 01:02:13;;;;;;;32.40;8.00;;;11.60;99.90;;;;;;5077462;28;20478;-61
2023/03/14 01:04:47;;;;;;;24.10;7.60;;;11.70;99.90;;;;;;5075963;28;20470;-61
2023/03/14 01:07:14;;;;;;;51.83;12.70;;;;;;;;;;5051390;28;20696;-62
2023/03/14 01:09:41;;;;;;;21.70;5.93;;;;;;;;;;5075607;28;20526;-61
2023/03/14 01:12:08;;;;;;;31.67;8.90;;;11.60;99.90;;;;;;5072331;28;20478;-61
2023/03/14 01:14:35;;;;;;;28.70;8.10;;;;;;;;;;5060238;28;20475;-62
2023/03/14 01:17:02;;;;;;;23.90;6.93;;;11.40;99.90;;;;;;5061814;28;20815;-61
2023/03/14 01:19:29;;;;;;;21.90;6.30;;;11.50;99.90;;;;;;5072825;28;20549;-62
2023/03/14 01:21:57;;;;;;;25.10;7.30;;;11.40;99.90;;;;;;5070086;28;20520;-61
2023/03/14 01:24:24;;;;;;;28.97;8.20;;;11.40;99.90;;;;;;5037038;28;20482;-61
2023/03/14 01:26:50;;;;;;;28.43;9.20;;;11.30;99.90;;;;;;5073262;28;20567;-61
2023/03/14 01:29:17;;;;;;;25.77;7.43;;;;;;;;;;5079267;28;20756;-61
2023/03/14 01:31:44;;;;;;;17.20;5.70;;;11.50;99.90;;;;;;5072727;28;20563;-61
2023/03/14 01:34:11;;;;;;;32.80;9.77;;;11.40;99.90;;;;;;5064791;28;20547;-61
2023/03/14 01:36:38;;;;;;;15.70;4.90;;;;;;;;;;5073286;28;21020;-61
2023/03/14 01:39:07;;;;;;;30.90;9.70;;;11.50;99.90;;;;;;5076738;28;20489;-61
2023/03/14 01:41:34;;;;;;;18.40;5.93;;;;;;;;;;5071934;28;20482;-61
2023/03/14 01:44:01;;;;;;;39.90;11.00;;;11.40;99.90;;;;;;5061778;28;20486;-61
2023/03/14 01:46:39;;;;;;;19.27;6.07;;;11.40;99.90;;;;;;5044582;28;20559;-61
2023/03/14 01:49:11;;;;;;;45.90;13.23;;;11.50;99.90;;;;;;5067552;28;20479;-61
2023/03/14 01:51:45;;;;;;;14.90;4.90;;;11.50;99.90;;;;;;5057640;28;20486;-61
2023/03/14 01:54:19;;;;;;;37.07;10.57;;;11.50;99.90;;;;;;5073402;28;20482;-61
2023/03/14 01:56:50;;;;;;;15.43;5.60;;;11.50;99.90;;;;;;5054951;28;20478;-61
2023/03/14 01:59:17;;;;;;;30.40;9.13;;;11.50;99.90;;;;;;5060006;28;20478;-62
2023/03/14 02:01:47;;;;;;;16.47;5.97;;;11.30;99.90;;;;;;5063871;28;20480;-61
2023/03/14 02:04:17;;;;;;;28.03;8.80;;;11.30;99.90;;;;;;5061757;28;20558;-61
2023/03/14 02:06:50;;;;;;;13.23;5.30;;;11.30;99.90;;;;;;5065266;28;21135;-61
2023/03/14 02:09:19;;;;;;;32.37;7.73;;;11.30;99.90;;;;;;5060869;28;21143;-61
2023/03/14 02:11:46;;;;;;;21.27;6.60;;;11.30;99.90;;;;;;5044675;28;20482;-61
2023/03/14 02:14:24;;;;;;;32.43;10.27;;;11.30;99.90;;;;;;5061379;28;20475;-61
2023/03/14 02:16:51;;;;;;;27.63;7.83;;;11.10;99.90;;;;;;5041260;28;20477;-60
2023/03/14 02:19:26;;;;;;;13.60;6.80;;;11.20;99.90;;;;;;5069037;28;20576;-61
2023/03/14 02:21:58;;;;;;;11.17;5.10;;;11.30;99.90;;;;;;5049250;28;20480;-61
2023/03/14 02:24:34;;;;;;;14.40;6.83;;;11.30;99.90;;;;;;5066339;28;20599;-61
2023/03/14 02:27:11;;;;;;;23.07;8.80;;;11.10;99.90;;;;;;5051625;28;20890;-61
2023/03/14 02:29:45;;;;;;;14.03;5.23;;;11.20;99.90;;;;;;5068739;28;21059;-61
2023/03/14 02:32:12;;;;;;;22.00;8.57;;;11.20;99.90;;;;;;5069205;28;20539;-61
2023/03/14 02:34:39;;;;;;;16.23;5.90;;;11.10;99.90;;;;;;5070604;28;20475;-61
2023/03/14 02:37:06;;;;;;;23.03;9.77;;;11.20;99.90;;;;;;5071526;28;20835;-61
2023/03/14 02:39:37;;;;;;;11.63;5.60;;;11.10;99.90;;;;;;5072930;28;20482;-61
2023/03/14 02:42:04;;;;;;;25.90;9.27;;;11.10;99.90;;;;;;5071026;28;20478;-61
2023/03/14 02:44:32;;;;;;;23.90;10.57;;;11.20;99.90;;;;;;5057838;28;20489;-62
2023/03/14 02:46:59;;;;;;;17.17;6.33;;;;;;;;;;5057139;28;20470;-61
2023/03/14 02:49:29;;;;;;;15.83;6.93;;;11.20;99.90;;;;;;5073062;28;20479;-61
2023/03/14 02:51:55;;;;;;;20.23;7.43;;;11.00;99.90;;;;;;5070727;28;20531;-61
2023/03/14 02:54:22;;;;;;;19.63;8.10;;;11.10;99.90;;;;;;5072716;28;20497;-61
2023/03/14 02:56:49;;;;;;;19.73;6.40;;;11.20;99.90;;;;;;5074133;28;20509;-61
2023/03/14 02:59:15;;;;;;;17.43;7.70;;;11.20;99.90;;;;;;5050705;28;20486;-61
2023/03/14 03:01:43;;;;;;;15.00;6.47;;;11.10;99.90;;;;;;5048831;28;20888;-61
2023/03/14 03:04:10;;;;;;;27.07;11.00;;;11.20;99.90;;;;;;5044007;28;20483;-61
2023/03/14 03:06:37;;;;;;;9.30;4.27;;;11.10;99.90;;;;;;5044939;28;20479;-61
2023/03/14 03:09:04;;;;;;;22.27;8.83;;;11.10;99.90;;;;;;5072446;28;20490;-61
2023/03/14 03:11:31;;;;;;;19.43;8.17;;;11.10;99.90;;;;;;5072048;28;20520;-61
2023/03/14 03:13:58;;;;;;;20.90;9.20;;;10.90;99.90;;;;;;5051130;28;21042;-60
2023/03/14 03:16:24;;;;;;;15.17;7.57;;;11.00;99.90;;;;;;5052881;28;21050;-62
2023/03/14 03:18:52;;;;;;;13.10;5.97;;;10.90;99.90;;;;;;5074081;28;20511;-61
2023/03/14 03:21:23;;;;;;;12.53;5.73;;;10.90;99.90;;;;;;5058231;28;20508;-61
2023/03/14 03:23:49;;;;;;;13.40;5.97;;;10.90;99.90;;;;;;5066878;28;20566;-61
2023/03/14 03:26:16;;;;;;;17.77;8.40;;;10.90;99.90;;;;;;5042843;28;20489;-60
2023/03/14 03:28:43;;;;;;;13.53;5.93;;;11.00;99.90;;;;;;5040103;28;20500;-61
2023/03/14 03:31:11;;;;;;;25.53;10.33;;;10.80;99.90;;;;;;5047435;28;20491;-62
2023/03/14 03:33:38;;;;;;;12.40;5.40;;;10.80;99.90;;;;;;5060411;28;20486;-61
2023/03/14 03:36:07;;;;;;;24.53;10.23;;;10.80;99.90;;;;;;5070378;28;20868;-60
2023/03/14 03:38:34;;;;;;;11.90;4.93;;;10.90;99.90;;;;;;5074996;28;20478;-61
2023/03/14 03:41:03;;;;;;;26.73;10.17;;;11.00;99.90;;;;;;5057933;28;20486;-61
2023/03/14 03:43:30;;;;;;;14.30;6.63;;;10.90;99.90;;;;;;5056677;28;20494;-61
2023/03/14 03:45:56;;;;;;;32.33;6.83;;;10.80;99.90;;;;;;5068703;28;20482;-61
2023/03/14 03:48:23;;;;;;;14.40;6.60;;;10.90;99.90;;;;;;5067322;28;20491;-61
2023/03/14 03:50:50;;;;;;;24.20;8.03;;;11.00;99.90;;;;;;5060122;28;20487;-61
2023/03/14 03:53:18;;;;;;;23.40;7.80;;;10.90;99.90;;;;;;5061760;28;20528;-61
2023/03/14 03:55:44;;;;;;;16.57;6.10;;;10.90;99.90;;;;;;5067075;28;20536;-61
2023/03/14 03:58:11;;;;;;;23.27;9.73;;;11.00;99.90;;;;;;5027926;28;20524;-61
2023/03/14 04:00:38;;;;;;;9.80;4.73;;;10.90;99.90;;;;;;5051759;28;20483;-61
2023/03/14 04:03:05;;;;;;;16.20;7.73;;;10.80;99.90;;;;;;5059229;28;20486;-60
2023/03/14 04:05:32;;;;;;;20.03;7.30;;;10.80;99.90;;;;;;5064449;28;20555;-61
2023/03/14 04:07:59;;;;;;;19.97;7.77;;;10.70;99.90;;;;;;5055965;28;20474;-61
2023/03/14 04:10:27;;;;;;;16.20;5.50;;;10.90;99.90;;;;;;5049246;28;20856;-61
2023/03/14 04:12:53;;;;;;;11.50;5.23;;;10.90;99.90;;;;;;5029766;28;20478;-61
2023/03/14 04:15:20;;;;;;;32.33;6.70;;;10.80;99.90;;;;;;5061359;28;20478;-60
2023/03/14 04:17:47;;;;;;;10.67;4.70;;;10.80;99.90;;;;;;5061937;28;20486;-61
2023/03/14 04:20:14;;;;;;;25.77;9.70;;;10.70;99.90;;;;;;5049458;28;20482;-61
2023/03/14 04:22:41;;;;;;;10.77;4.57;;;10.60;99.90;;;;;;5073786;28;20478;-61
2023/03/14 04:25:09;;;;;;;29.57;11.73;;;10.70;99.90;;;;;;5057858;28;20466;-61
2023/03/14 04:27:37;;;;;;;22.00;8.10;;;10.70;99.90;;;;;;5064289;28;21086;-61
2023/03/14 04:30:04;;;;;;;21.30;6.70;;;10.80;99.90;;;;;;5067325;28;21408;-61
2023/03/14 04:32:30;;;;;;;12.23;5.77;;;10.80;99.90;;;;;;5039362;28;21083;-61
2023/03/14 04:34:57;;;;;;;16.90;7.40;;;10.70;99.90;;;;;;5054934;28;20952;-61
2023/03/14 04:37:24;;;;;;;22.53;6.57;;;10.60;99.90;;;;;;5066527;28;20567;-61
2023/03/14 04:39:50;;;;;;;15.73;5.97;;;10.60;99.90;;;;;;5059912;28;20551;-60
2023/03/14 04:42:17;;;;;;;23.83;9.47;;;10.60;99.90;;;;;;5067277;28;20486;-61
2023/03/14 04:44:46;;;;;;;11.10;5.03;;;10.60;99.90;;;;;;5043653;28;20925;-61
2023/03/14 04:47:13;;;;;;;29.43;11.37;;;10.50;99.90;;;;;;5052496;28;21027;-61
2023/03/14 04:49:40;;;;;;;14.87;5.13;;;10.50;99.90;;;;;;5061744;28;20479;-61
2023/03/14 04:52:06;;;;;;;24.43;8.17;;;10.50;99.90;;;;;;5036162;28;20515;-61
2023/03/14 04:54:33;;;;;;;17.63;7.90;;;10.50;99.90;;;;;;5067394;28;20471;-61
2023/03/14 04:57:00;;;;;;;26.20;9.97;;;10.50;99.90;;;;;;5065233;28;20478;-61
2023/03/14 04:59:26;;;;;;;29.70;6.43;;;10.60;99.90;;;;;;5072825;28;20486;-61
2023/03/14 05:01:54;;;;;;;16.57;6.50;;;10.60;99.90;;;;;;5042927;28;20475;-61
2023/03/14 05:04:21;;;;;;;18.00;7.10;;;10.60;99.90;;;;;;5065775;28;20575;-61
2023/03/14 05:06:48;;;;;;;27.67;5.30;;;12.90;99.90;;;;;;5067288;28;20474;-61
2023/03/14 05:09:15;;;;;;;20.70;7.53;;;10.60;99.90;;;;;;5061190;28;21029;-61
2023/03/14 05:11:42;;;;;;;15.47;5.30;;;10.70;99.90;;;;;;5066230;28;20558;-60
2023/03/14 05:14:08;;;;;;;34.97;7.33;;;10.60;99.90;;;;;;5069464;28;20571;-61
2023/03/14 05:16:35;;;;;;;15.23;5.80;;;10.60;99.90;;;;;;5061604;28;20897;-61
2023/03/14 05:19:03;;;;;;;20.93;8.27;;;10.60;99.90;;;;;;5076581;28;20978;-61
2023/03/14 05:21:30;;;;;;;19.97;5.87;;;10.70;99.90;;;;;;5064206;28;20478;-61
2023/03/14 05:23:56;;;;;;;11.80;5.60;;;10.60;99.90;;;;;;5059995;28;20508;-61
2023/03/14 05:26:23;;;;;;;18.37;7.00;;;10.60;99.90;;;;;;5061873;28;20494;-61
2023/03/14 05:28:50;;;;;;;27.63;7.00;;;10.60;99.90;;;;;;5063832;28;20487;-61
2023/03/14 05:31:17;;;;;;;28.20;9.20;;;10.60;99.90;;;;;;5039385;28;20486;-60
2023/03/14 05:33:43;;;;;;;13.77;5.43;;;10.50;99.90;;;;;;5047326;28;20494;-61
2023/03/14 05:36:11;;;;;;;26.83;10.07;;;10.60;99.90;;;;;;5054479;28;20491;-61
2023/03/14 05:38:38;;;;;;;11.43;4.60;;;10.60;99.90;;;;;;5046474;28;20912;-61
2023/03/14 05:41:05;;;;;;;26.73;9.63;;;10.50;99.90;;;;;;5071704;28;20482;-61
2023/03/14 05:43:32;;;;;;;23.20;6.80;;;10.40;99.90;;;;;;5058242;28;20474;-60
2023/03/14 05:45:59;;;;;;;18.43;8.33;;;10.40;99.90;;;;;;5035629;28;20800;-61
2023/03/14 05:48:25;;;;;;;11.03;5.43;;;10.40;99.90;;;;;;5057449;28;20544;-61
2023/03/14 05:50:56;;;;;;;10.40;5.40;;;10.40;99.90;;;;;;5078004;28;20540;-61
2023/03/14 05:53:24;;;;;;;14.60;6.57;;;10.50;99.90;;;;;;5039038;28;20561;-60
2023/03/14 05:55:52;;;;;;;15.20;6.93;;;10.40;99.90;;;;;;5044361;28;20486;-60
2023/03/14 05:58:19;;;;;;;14.43;4.70;;;10.40;99.90;;;;;;5060674;28;20537;-61
2023/03/14 06:00:46;;;;;;;12.43;5.57;;;10.50;99.90;;;;;;5059082;28;20547;-61
2023/03/14 06:03:12;;;;;;;25.00;10.27;;;10.40;99.90;;;;;;5050078;28;20482;-61
2023/03/14 06:05:39;;;;;;;13.27;3.87;;;10.40;99.90;;;;;;5054393;28;20532;-61
2023/03/14 06:08:06;;;;;;;23.83;9.93;;;10.50;99.90;;;;;;5035968;28;20486;-60
2023/03/14 06:10:36;;;;;;;10.20;4.00;;;10.50;99.90;;;;;;5053388;28;21003;-61
2023/03/14 06:13:02;;;;;;;24.43;7.67;;;10.40;99.90;;;;;;5065071;28;20463;-61
2023/03/14 06:15:29;;;;;;;14.60;7.23;;;10.50;99.90;;;;;;5066569;28;20585;-61
2023/03/14 06:17:56;;;;;;;16.07;6.27;;;10.40;99.90;;;;;;5064665;28;20490;-61
2023/03/14 06:20:23;;;;;;;14.73;4.80;;;10.40;99.90;;;;;;5052364;28;20474;-60
2023/03/14 06:22:50;;;;;;;15.10;6.47;;;10.40;99.90;;;;;;5051990;28;20535;-61
2023/03/14 06:25:17;;;;;;;17.10;8.27;;;10.30;99.90;;;;;;5044916;28;21050;-61
2023/03/14 06:27:45;;;;;;;15.70;3.87;;;10.30;99.90;;;;;;5070990;28;20487;-60
2023/03/14 06:30:12;;;;;;;23.30;8.50;;;10.20;99.90;;;;;;5059877;28;20486;-60
2023/03/14 06:32:39;;;;;;;8.40;3.90;;;10.20;99.90;;;;;;5049597;28;20990;-61
2023/03/14 06:35:06;;;;;;;23.23;7.73;;;10.10;99.90;;;;;;5055747;28;20855;-61
2023/03/14 06:37:33;;;;;;;18.17;7.23;;;10.00;99.90;;;;;;5054479;28;20899;-61
2023/03/14 06:39:59;;;;;;;22.13;5.97;;;10.10;99.90;;;;;;5065887;28;20478;-61
2023/03/14 06:42:27;;;;;;;14.90;4.67;;;10.10;99.90;;;;;;5055700;28;20481;-61
2023/03/14 06:44:55;;;;;;;17.93;7.20;;;10.10;99.90;;;;;;5033168;28;20500;-60
2023/03/14 06:47:21;;;;;;;13.67;5.80;;;10.10;99.90;;;;;;5052556;28;20536;-60
2023/03/14 06:49:48;;;;;;;15.00;4.87;;;10.30;99.90;;;;;;5058864;28;20470;-61
2023/03/14 06:52:14;;;;;;;20.30;7.83;;;10.40;99.90;;;;;;5067877;28;20792;-61
2023/03/14 06:54:41;;;;;;;25.93;8.70;;;10.40;99.90;;;;;;5064693;28;20479;-61
2023/03/14 06:57:08;;;;;;;23.93;8.43;;;10.40;99.90;;;;;;5064738;28;20478;-61
2023/03/14 06:59:34;;;;;;;15.67;6.23;;;10.40;99.90;;;;;;5073307;28;20846;-60
2023/03/14 07:02:02;;;;;;;21.20;8.10;;;10.30;99.90;;;;;;5068053;28;20482;-61
2023/03/14 07:04:29;;;;;;;17.10;6.07;;;10.40;99.90;;;;;;5051491;28;20491;-61
2023/03/14 07:06:56;;;;;;;16.30;5.60;;;10.50;99.90;;;;;;5071988;28;20478;-60
2023/03/14 07:09:22;;;;;;;16.90;6.50;;;10.60;99.90;;;;;;5063871;28;20475;-61
2023/03/14 07:11:49;;;;;;;14.83;4.77;;;10.70;99.90;;;;;;5066901;28;20559;-60
2023/03/14 07:14:16;;;;;;;19.70;8.70;;;10.70;99.90;;;;;;5062262;28;20516;-60
2023/03/14 07:16:42;;;;;;;11.77;4.93;;;10.70;99.90;;;;;;5055525;28;20490;-61
2023/03/14 07:19:10;;;;;;;17.97;6.10;;;10.80;99.90;;;;;;5062956;28;20486;-60
2023/03/14 07:21:37;;;;;;;10.93;4.60;;;10.60;99.90;;;;;;5049894;28;20486;-61
2023/03/14 07:24:04;;;;;;;22.80;9.20;;;10.80;99.90;;;;;;5062356;28;20489;-62
2023/03/14 07:26:31;;;;;;;13.40;4.90;;;10.90;99.90;;;;;;5055500;28;20489;-60
2023/03/14 07:28:57;;;;;;;9.93;4.37;;;10.80;99.90;;;;;;5056853;28;20475;-61
2023/03/14 07:31:24;;;;;;;16.00;7.03;;;10.70;99.90;;;;;;5048498;28;20855;-61
2023/03/14 07:33:51;;;;;;;19.97;6.30;;;10.90;99.90;;;;;;5037905;28;20479;-61
2023/03/14 07:36:19;;;;;;;17.93;6.60;;;10.90;99.90;;;;;;5063860;28;20490;-61
2023/03/14 07:38:46;;;;;;;14.20;5.37;;;11.00;99.90;;;;;;5072348;28;20482;-60
2023/03/14 07:41:12;;;;;;;21.87;7.00;;;11.00;99.90;;;;;;5053516;28;20881;-61
2023/03/14 07:43:39;;;;;;;14.87;6.17;;;10.90;99.90;;;;;;5066501;28;20516;-61
2023/03/14 07:46:06;;;;;;;30.33;11.17;;;11.00;99.90;;;;;;5056348;28;20939;-61
2023/03/14 07:48:33;;;;;;;17.70;6.17;;;11.00;99.90;;;;;;5072848;28;20516;-61
2023/03/14 07:51:00;;;;;;;18.23;6.40;;;10.90;99.90;;;;;;5074072;28;20543;-60
2023/03/14 07:53:28;;;;;;;25.13;9.10;;;10.90;99.90;;;;;;5067719;28;20487;-61
2023/03/14 07:55:55;;;;;;;13.63;4.50;;;11.00;99.90;;;;;;5048641;28;20818;-61
2023/03/14 07:58:22;;;;;;;11.10;4.77;;;10.90;99.90;;;;;;5051378;28;20478;-60
2023/03/14 08:00:49;;;;;;;15.73;6.30;;;11.00;99.90;;;;;;5050568;28;20540;-61
2023/03/14 08:03:16;;;;;;;24.53;8.20;;;10.80;99.90;;;;;;5054082;28;21067;-61
2023/03/14 08:05:43;;;;;;;10.33;4.80;;;10.80;99.90;;;;;;5062238;28;20490;-61
2023/03/14 08:08:09;;;;;;;18.53;7.60;;;10.80;99.90;;;;;;5071107;28;20942;-61
2023/03/14 08:10:37;;;;;;;17.63;5.33;;;10.80;99.90;;;;;;5071927;28;20478;-61
2023/03/14 08:13:04;;;;;;;20.73;9.33;;;10.70;99.90;;;;;;5070616;28;20478;-61
2023/03/14 08:15:31;;;;;;;17.00;7.23;;;10.80;99.90;;;;;;5050072;28;20482;-61
2023/03/14 08:17:58;;;;;;;14.10;4.07;;;10.80;99.90;;;;;;5066135;28;21119;-61
2023/03/14 08:20:27;;;;;;;12.00;5.50;;;10.80;99.90;;;;;;5060132;28;21204;-61
2023/03/14 08:22:57;;;;;;;9.33;4.33;;;10.80;99.90;;;;;;5065447;28;20567;-61
2023/03/14 08:25:24;;;;;;;20.03;6.73;;;11.00;99.90;;;;;;5058738;28;20566;-61
2023/03/14 08:27:52;;;;;;;14.70;6.73;;;10.90;99.90;;;;;;5043564;28;20547;-61
2023/03/14 08:30:20;;;;;;;17.47;7.67;;;11.00;99.90;;;;;;5053460;28;20494;-61
2023/03/14 08:32:46;;;;;;;11.63;5.50;;;10.90;99.90;;;;;;5039154;28;20490;-61
2023/03/14 08:35:14;;;;;;;27.30;11.30;;;10.90;99.90;;;;;;5042134;28;20474;-61
2023/03/14 08:37:41;;;;;;;17.43;7.60;;;;;;;;;;5056632;28;20547;-61
2023/03/14 08:40:09;;;;;;;21.40;8.63;;;10.90;99.90;;;;;;5053187;28;21047;-60
2023/03/14 08:42:36;;;;;;;12.80;6.10;;;11.00;99.90;;;;;;5062378;28;20577;-60
2023/03/14 08:45:06;;;;;;;22.13;8.90;;;11.00;99.90;;;;;;5061398;28;20482;-61
2023/03/14 08:47:32;;;;;;;19.83;8.53;;;11.00;99.90;;;;;;5067541;28;20474;-60
2023/03/14 08:49:59;;;;;;;15.70;6.17;;;11.10;99.90;;;;;;5063190;28;20874;-61
2023/03/14 08:52:26;;;;;;;14.20;5.80;;;11.20;99.90;;;;;;5052515;28;20474;-61
2023/03/14 08:54:52;;;;;;;15.50;6.67;;;11.20;99.90;;;;;;5033238;28;21055;-61
2023/03/14 08:57:21;;;;;;;22.13;8.70;;;11.20;99.90;;;;;;5069237;28;20539;-61
2023/03/14 08:59:48;;;;;;;17.97;6.30;;;11.30;99.90;;;;;;5070886;28;20559;-61
2023/03/14 09:02:16;;;;;;;24.60;9.80;;;11.30;99.90;;;;;;5063648;28;21218;-61
2023/03/14 09:04:42;;;;;;;14.43;6.30;;;11.40;99.90;;;;;;5053115;28;20482;-61
2023/03/14 09:07:09;;;;;;;29.87;11.63;;;11.20;99.90;;;;;;5044513;28;20487;-61
2023/03/14 09:09:36;;;;;;;21.20;8.20;;;11.20;99.90;;;;;;5053961;28;20498;-60
2023/03/14 09:12:02;;;;;;;22.93;8.40;;;11.10;99.90;;;;;;5063304;28;20493;-61
2023/03/14 09:14:29;;;;;;;22.13;6.63;;;11.00;99.90;;;;;;5064861;28;20531;-61
2023/03/14 09:16:56;;;;;;;14.23;6.13;;;11.10;99.90;;;;;;5060905;28;20714;-61
2023/03/14 09:19:24;;;;;;;20.57;7.70;;;10.80;99.90;;;;;;5060751;28;20505;-61
2023/03/14 09:21:51;;;;;;;9.13;2.87;;;10.80;99.90;;;;;;5058709;28;20487;-60
2023/03/14 09:24:18;;;;;;;25.67;9.03;;;10.60;99.90;;;;;;5065141;28;20474;-61
2023/03/14 09:26:44;;;;;;;13.43;5.40;;;10.70;99.90;;;;;;5050170;28;20619;-62
2023/03/14 09:29:11;;;;;;;35.40;10.03;;;10.80;99.90;;;;;;5042330;28;20483;-61
2023/03/14 09:31:38;;;;;;;19.33;7.17;;;10.80;99.90;;;;;;5041450;28;20503;-60
2023/03/14 09:34:04;;;;;;;28.90;10.33;;;10.70;99.90;;;;;;5052390;28;20536;-61
2023/03/14 09:36:32;;;;;;;19.33;7.53;;;10.90;99.90;;;;;;5042150;28;21234;-61
2023/03/14 09:38:59;;;;;;;18.60;7.20;;;10.80;99.90;;;;;;5066015;28;20831;-61
2023/03/14 09:41:28;;;;;;;17.03;6.50;;;10.90;99.90;;;;;;5060707;28;20810;-61
2023/03/14 09:44:03;;;;;;;13.70;5.73;;;10.90;99.90;;;;;;5066250;28;20811;-61
2023/03/14 09:46:31;;;;;;;17.87;7.03;;;10.90;99.90;;;;;;5065998;28;20491;-61
2023/03/14 09:48:58;;;;;;;13.60;5.30;;;10.80;99.90;;;;;;5056002;28;20571;-61
2023/03/14 09:51:25;;;;;;;18.80;6.40;;;10.80;99.90;;;;;;5067638;28;20901;-61
2023/03/14 09:53:54;;;;;;;17.40;6.00;;;10.60;99.90;;;;;;5067899;28;20474;-61
2023/03/14 09:56:24;;;;;;;15.17;6.07;;;10.70;99.90;;;;;;5057716;28;20936;-61
2023/03/14 09:58:54;;;;;;;16.17;5.27;;;10.60;99.90;;;;;;5053342;28;20491;-61
2023/03/14 10:01:25;;;;;;;13.13;5.60;;;10.80;99.90;;;;;;5039584;28;20481;-61
2023/03/14 10:03:54;;;;;;;12.90;5.23;;;10.50;99.90;;;;;;5047195;28;20479;-61
2023/03/14 10:06:23;;;;;;;14.70;6.70;;;10.70;99.90;;;;;;5064187;28;20873;-60
2023/03/14 10:08:49;;;;;;;18.37;7.67;;;10.70;99.90;;;;;;5062460;28;20565;-61
2023/03/14 10:11:19;;;;;;;19.10;7.73;;;10.80;99.90;;;;;;5068867;28;20536;-60
2023/03/14 10:13:51;;;;;;;14.27;6.47;;;10.80;99.90;;;;;;5055957;28;20905;-61
2023/03/14 10:16:28;;;;;;;18.03;7.47;;;10.90;99.90;;;;;;5054292;28;20483;-61
2023/03/14 10:19:03;;;;;;;11.17;5.33;;;10.80;99.90;;;;;;5057907;28;20497;-60
2023/03/14 10:21:33;;;;;;;18.87;7.87;;;10.70;99.90;;;;;;5065301;28;20824;-60
2023/03/14 10:24:09;;;;;;;20.83;6.63;;;10.60;99.90;;;;;;5028773;28;21096;-60
2023/03/14 10:26:38;;;;;;;16.77;7.13;;;10.50;99.90;;;;;;5063895;28;21048;-61
2023/03/14 10:29:11;;;;;;;19.30;7.60;;;10.30;99.90;;;;;;5059351;28;21018;-61
2023/03/14 10:31:48;;;;;;;10.50;4.90;;;10.40;99.90;;;;;;5066475;28;20505;-60
2023/03/14 10:34:18;;;;;;;31.67;11.40;;;10.20;99.90;;;;;;5066495;28;20543;-61
2023/03/14 10:36:45;;;;;;;11.40;4.83;;;10.20;99.90;;;;;;5066519;28;20509;-60
2023/03/14 10:39:28;;;;;;;33.53;10.90;;;10.10;99.90;;;;;;5043054;28;20502;-60
2023/03/14 10:42:05;;;;;;;14.33;5.90;;;10.10;99.90;;;;;;5045830;28;21192;-61
2023/03/14 10:44:32;;;;;;;27.23;9.60;;;10.00;99.90;;;;;;5030758;28;21022;-61
2023/03/14 10:47:02;;;;;;;23.80;6.27;;;9.90;99.90;;;;;;5049816;28;20508;-60
2023/03/14 10:49:30;;;;;;;18.63;6.83;;;9.80;99.90;;;;;;5052314;28;20990;-60
2023/03/14 10:52:02;;;;;;;20.80;7.50;;;9.70;99.90;;;;;;5047255;28;20782;-60
2023/03/14 10:54:33;;;;;;;27.30;8.57;;;9.60;99.90;;;;;;5051815;28;20953;-60
2023/03/14 10:57:05;;;;;;;17.60;6.70;;;9.50;99.90;;;;;;5060284;28;20738;-61
2023/03/14 10:59:36;;;;;;;25.70;8.63;;;9.60;99.90;;;;;;5045231;28;20480;-60
2023/03/14 11:02:16;;;;;;;27.27;9.07;;;9.50;99.90;;;;;;5046473;28;20572;-60
2023/03/14 11:05:04;;;;;;;29.23;9.70;;;9.40;99.90;;;;;;5042631;28;20482;-61
2023/03/14 11:07:36;;;;;;;23.77;8.40;;;9.40;99.90;;;;;;5040568;28;20523;-60
2023/03/14 11:10:15;;;;;;;20.80;7.60;;;9.30;99.90;;;;;;5047904;28;20545;-60
2023/03/14 11:12:54;;;;;;;20.07;7.00;;;9.30;99.90;;;;;;5054819;28;20551;-60
2023/03/14 11:15:26;;;;;;;38.53;8.50;;;9.40;99.90;;;;;;5051233;28;20478;-60
2023/03/14 11:18:07;;;;;;;17.77;7.10;;;9.70;99.90;;;;;;5039183;28;20483;-61
2023/03/14 11:20:39;;;;;;;14.83;5.93;;;9.50;99.90;;;;;;5045500;28;20603;-61
2023/03/14 11:23:13;;;;;;;47.33;14.27;;;9.60;99.90;;;;;;5042092;28;20540;-60
2023/03/14 11:25:46;;;;;;;13.83;5.80;;;9.70;99.90;;;;;;5046696;28;20924;-60
2023/03/14 11:28:22;;;;;;;29.93;11.30;;;9.70;99.90;;;;;;5059546;28;20980;-60
2023/03/14 11:30:52;;;;;;;13.40;5.57;;;9.90;99.30;;;;;;5042621;28;20759;-60
2023/03/14 11:33:25;;;;;;;16.80;5.40;;;10.00;98.40;;;;;;5045854;28;20728;-60
2023/03/14 11:36:00;;;;;;;22.97;8.53;;;10.20;97.70;;;;;;5048975;28;20462;-61
2023/03/14 11:38:34;;;;;;;26.03;7.07;;;10.20;97.20;;;;;;5052837;28;20633;-60
2023/03/14 11:41:01;;;;;;;23.97;8.67;;;10.30;96.50;;;;;;5052950;28;20524;-60
2023/03/14 11:43:39;;;;;;;20.73;7.63;;;10.40;96.80;;;;;;5055099;28;20918;-60
2023/03/14 11:46:16;;;;;;;37.03;13.07;;;10.40;96.80;;;;;;5042845;28;20489;-60
2023/03/14 11:48:52;;;;;;;14.70;6.00;;;10.50;95.90;;;;;;5058760;28;20483;-60
2023/03/14 11:51:24;;;;;;;17.30;7.30;;;10.60;96.20;;;;;;5034348;28;20545;-60
2023/03/14 11:54:02;;;;;;;23.47;9.87;;;10.70;96.00;;;;;;5045555;28;20483;-60
2023/03/14 11:56:35;;;;;;;17.17;7.50;;;10.70;93.90;;;;;;5043627;28;20536;-60
2023/03/14 11:59:06;;;;;;;20.83;7.43;;;10.70;92.70;;;;;;5057587;28;20866;-60
2023/03/14 12:01:46;;;;;;;18.03;5.90;;;10.70;92.70;;;;;;5061423;28;20677;-60
2023/03/14 12:04:20;;;;;;;29.90;11.50;;;10.70;92.70;;;;;;5053391;28;20988;-60
2023/03/14 12:06:49;;;;;;;8.67;4.03;;;10.60;92.30;;;;;;5062803;28;20539;-60
2023/03/14 12:09:17;;;;;;;28.60;10.73;;;10.70;92.70;;;;;;5032306;28;20479;-60
2023/03/14 12:11:50;;;;;;;13.50;5.70;;;10.80;92.90;;;;;;5054783;28;20572;-60
2023/03/14 12:14:22;;;;;;;18.50;6.20;;;11.20;93.20;;;;;;5050503;28;20494;-61
2023/03/14 12:16:56;;;;;;;16.30;7.30;;;11.40;92.50;;;;;;5040183;28;20551;-61
2023/03/14 12:19:32;;;;;;;11.67;5.20;;;11.30;92.20;;;;;;5042785;28;20498;-60
2023/03/14 12:22:09;;;;;;;17.30;6.53;;;11.30;91.60;;;;;;5048695;28;20587;-60
2023/03/14 12:24:38;;;;;;;27.27;8.57;;;10.00;91.20;;;;;;5061672;28;20474;-60
2023/03/14 12:27:08;;;;;;;14.67;5.87;;;11.00;91.80;;;;;;5058802;28;20527;-60
2023/03/14 12:30:01;;;;;;;19.17;8.23;;;11.10;91.60;;;;;;5048443;28;20510;-60
2023/03/14 12:32:28;;;;;;;19.73;7.07;;;11.20;91.60;;;;;;5061728;28;20988;-60
2023/03/14 12:34:54;;;;;;;12.43;5.40;;;11.10;90.90;;;;;;5066002;28;20482;-60
2023/03/14 12:37:34;;;;;;;18.77;5.97;;;11.00;90.30;;;;;;5035205;28;20479;-60
2023/03/14 12:40:14;;;;;;;17.23;6.83;;;10.90;88.90;;;;;;5059318;28;20479;-61
2023/03/14 12:42:58;;;;;;;12.27;5.50;;;10.70;89.40;;;;;;5052881;28;20470;-60
2023/03/14 12:45:30;;;;;;;13.60;5.20;;;;;;;;;;5056732;28;20482;-61
2023/03/14 12:48:10;;;;;;;16.20;6.63;;;10.30;88.60;;;;;;5050655;28;20481;-60